createdAt,value
2018-09-06T00:00:54.892Z,3.23
2018-09-06T00:03:23.149Z,3.87
2018-09-06T00:05:51.174Z,3.00
2018-09-06T00:08:19.142Z,3.70
2018-09-06T00:10:46.893Z,3.00
2018-09-06T00:13:14.853Z,4.10
2018-09-06T00:15:43.411Z,3.77
2018-09-06T00:18:11.280Z,3.43
2018-09-06T00:20:39.280Z,3.37
2018-09-06T00:23:07.390Z,3.30
2018-09-06T00:25:35.871Z,4.60
2018-09-06T00:28:03.566Z,3.50
2018-09-06T00:30:31.175Z,3.70
2018-09-06T00:32:59.040Z,3.47
2018-09-06T00:35:26.692Z,3.43
2018-09-06T00:37:54.409Z,4.30
2018-09-06T00:40:22.269Z,4.20
2018-09-06T00:42:50.402Z,4.30
2018-09-06T00:45:18.157Z,3.50
2018-09-06T00:47:45.762Z,3.77
2018-09-06T00:50:17.721Z,3.97
2018-09-06T00:52:47.285Z,3.93
2018-09-06T00:55:14.928Z,3.50
2018-09-06T00:57:42.619Z,3.50
2018-09-06T01:00:10.261Z,4.17
2018-09-06T01:02:37.916Z,4.00
2018-09-06T01:05:05.838Z,3.97
2018-09-06T01:07:33.498Z,4.00
2018-09-06T01:10:01.520Z,4.57
2018-09-06T01:12:29.417Z,3.63
2018-09-06T01:14:57.424Z,3.57
2018-09-06T01:17:25.458Z,3.60
2018-09-06T01:19:53.520Z,3.90
2018-09-06T01:22:21.261Z,4.10
2018-09-06T01:24:49.146Z,4.27
2018-09-06T01:27:16.769Z,4.20
2018-09-06T01:29:44.606Z,3.80
2018-09-06T01:32:12.531Z,3.50
2018-09-06T01:34:40.150Z,4.20
2018-09-06T01:37:12.896Z,3.83
2018-09-06T01:39:40.604Z,3.83
2018-09-06T01:42:08.889Z,4.20
2018-09-06T01:44:36.859Z,4.30
2018-09-06T01:47:05.128Z,3.80
2018-09-06T01:49:33.303Z,4.13
2018-09-06T01:52:00.993Z,4.10
2018-09-06T01:54:29.006Z,3.90
2018-09-06T01:56:56.756Z,3.90
2018-09-06T01:59:24.484Z,4.23
2018-09-06T02:01:52.451Z,4.50
2018-09-06T02:04:20.166Z,4.30
2018-09-06T02:06:47.957Z,3.67
2018-09-06T02:09:15.556Z,4.37
2018-09-06T02:11:43.225Z,3.70
2018-09-06T02:14:11.245Z,4.70
2018-09-06T02:16:38.881Z,3.90
2018-09-06T02:19:06.825Z,3.93
2018-09-06T02:21:34.746Z,4.10
2018-09-06T02:24:02.368Z,4.40
2018-09-06T02:26:30.713Z,4.10
2018-09-06T02:28:58.371Z,3.50
2018-09-06T02:31:26.021Z,4.10
2018-09-06T02:33:53.901Z,3.90
2018-09-06T02:36:21.538Z,3.43
2018-09-06T02:38:49.424Z,4.17
2018-09-06T02:41:17.395Z,4.17
2018-09-06T02:43:45.023Z,4.00
2018-09-06T02:46:12.970Z,4.17
2018-09-06T02:48:42.211Z,3.60
2018-09-06T02:51:15.333Z,3.30
2018-09-06T02:53:43.108Z,4.00
2018-09-06T02:56:11.381Z,3.47
2018-09-06T02:58:39.062Z,4.30
2018-09-06T03:01:06.973Z,3.87
2018-09-06T03:03:34.677Z,4.20
2018-09-06T03:06:02.678Z,3.83
2018-09-06T03:08:30.520Z,4.43
2018-09-06T03:11:04.766Z,3.80
2018-09-06T03:13:32.665Z,4.07
2018-09-06T03:16:01.124Z,4.00
2018-09-06T03:18:28.778Z,4.20
2018-09-06T03:20:56.730Z,4.47
2018-09-06T03:23:24.361Z,4.00
2018-09-06T03:25:52.304Z,4.93
2018-09-06T03:28:19.941Z,4.57
2018-09-06T03:30:47.945Z,4.70
2018-09-06T03:33:15.628Z,3.93
2018-09-06T03:35:43.236Z,4.60
2018-09-06T03:38:10.909Z,3.63
2018-09-06T03:40:39.090Z,4.27
2018-09-06T03:43:06.821Z,4.33
2018-09-06T03:45:34.457Z,4.00
2018-09-06T03:48:02.048Z,4.53
2018-09-06T03:50:29.714Z,3.60
2018-09-06T03:52:57.350Z,3.70
2018-09-06T03:55:25.322Z,4.17
2018-09-06T03:57:53.295Z,3.97
2018-09-06T04:00:20.954Z,3.80
2018-09-06T04:02:48.833Z,3.80
2018-09-06T04:05:16.742Z,4.83
2018-09-06T04:07:44.381Z,4.27
2018-09-06T04:10:12.072Z,4.50
2018-09-06T04:12:40.149Z,4.43
2018-09-06T04:15:07.917Z,4.93
2018-09-06T04:17:35.649Z,3.83
2018-09-06T04:20:03.420Z,4.73
2018-09-06T04:22:31.629Z,4.47
2018-09-06T04:24:59.693Z,5.00
2018-09-06T04:27:27.410Z,4.70
2018-09-06T04:29:54.824Z,4.50
2018-09-06T04:32:22.784Z,4.53
2018-09-06T04:34:50.728Z,4.97
2018-09-06T04:37:18.699Z,4.60
2018-09-06T04:39:46.296Z,3.70
2018-09-06T04:42:13.952Z,4.67
2018-09-06T04:44:41.641Z,4.80
2018-09-06T04:47:09.298Z,4.77
2018-09-06T04:49:36.965Z,4.47
2018-09-06T04:52:04.535Z,5.27
2018-09-06T04:54:32.152Z,4.23
2018-09-06T04:56:59.787Z,4.60
2018-09-06T04:59:27.936Z,4.67
2018-09-06T05:01:55.601Z,5.77
2018-09-06T05:04:23.555Z,4.93
2018-09-06T05:06:51.754Z,4.93
2018-09-06T05:09:19.678Z,5.10
2018-09-06T05:11:46.656Z,4.80
2018-09-06T05:14:14.842Z,4.87
2018-09-06T05:16:42.484Z,4.70
2018-09-06T05:19:10.174Z,5.03
2018-09-06T05:21:37.819Z,4.37
2018-09-06T05:24:05.732Z,5.33
2018-09-06T05:26:33.407Z,4.30
2018-09-06T05:29:01.326Z,4.93
2018-09-06T05:31:28.730Z,5.30
2018-09-06T05:33:56.337Z,5.10
2018-09-06T05:36:23.987Z,5.40
2018-09-06T05:38:51.617Z,5.10
2018-09-06T05:41:19.265Z,4.73
2018-09-06T05:43:47.448Z,5.23
2018-09-06T05:46:15.515Z,5.30
2018-09-06T05:48:43.530Z,5.23
2018-09-06T05:51:11.165Z,4.87
2018-09-06T05:53:39.312Z,4.60
2018-09-06T05:56:07.241Z,4.70
2018-09-06T05:58:35.088Z,5.10
2018-09-06T06:01:03.116Z,4.77
2018-09-06T06:03:31.098Z,5.33
2018-09-06T06:05:59.053Z,4.87
2018-09-06T06:08:37.457Z,5.03
2018-09-06T06:11:05.189Z,5.57
2018-09-06T06:13:32.831Z,5.43
2018-09-06T06:16:00.554Z,5.73
2018-09-06T06:18:28.543Z,5.27
2018-09-06T06:20:56.436Z,5.30
2018-09-06T06:23:24.070Z,5.40
2018-09-06T06:25:51.751Z,5.83
2018-09-06T06:28:19.765Z,5.30
2018-09-06T06:30:48.218Z,5.07
2018-09-06T06:33:15.865Z,5.50
2018-09-06T06:35:43.505Z,5.90
2018-09-06T06:38:11.198Z,5.03
2018-09-06T06:40:38.825Z,5.70
2018-09-06T06:43:06.479Z,5.97
2018-09-06T06:45:34.402Z,6.17
2018-09-06T06:48:02.387Z,5.57
2018-09-06T06:50:30.116Z,6.10
2018-09-06T06:52:58.089Z,5.37
2018-09-06T06:55:26.013Z,6.53
2018-09-06T06:57:53.874Z,5.60
2018-09-06T07:00:21.892Z,5.03
2018-09-06T07:02:50.396Z,5.90
2018-09-06T07:05:18.368Z,5.23
2018-09-06T07:07:46.023Z,5.80
2018-09-06T07:10:14.026Z,5.80
2018-09-06T07:12:41.645Z,5.30
2018-09-06T07:15:09.604Z,5.60
2018-09-06T07:17:37.632Z,5.73
2018-09-06T07:20:05.248Z,5.63
2018-09-06T07:22:32.897Z,6.07
2018-09-06T07:25:01.116Z,5.80
2018-09-06T07:27:29.144Z,5.13
2018-09-06T07:29:58.029Z,5.57
2018-09-06T07:32:26.339Z,5.40
2018-09-06T07:34:54.002Z,5.53
2018-09-06T07:37:21.958Z,6.27
2018-09-06T07:39:50.065Z,5.20
2018-09-06T07:42:17.986Z,5.93
2018-09-06T07:44:45.599Z,6.20
2018-09-06T07:47:13.622Z,5.83
2018-09-06T07:49:42.385Z,5.57
2018-09-06T07:52:10.030Z,5.53
2018-09-06T07:54:37.719Z,5.77
2018-09-06T07:57:05.671Z,6.17
2018-09-06T07:59:33.569Z,6.30
2018-09-06T08:02:01.495Z,5.43
2018-09-06T08:04:29.158Z,6.00
2018-09-06T08:06:57.118Z,5.80
2018-09-06T08:09:25.055Z,5.80
2018-09-06T08:11:53.638Z,6.40
2018-09-06T08:14:21.635Z,6.10
2018-09-06T08:16:49.621Z,6.27
2018-09-06T08:19:17.309Z,5.40
2018-09-06T08:21:44.967Z,5.90
2018-09-06T08:24:12.611Z,5.80
2018-09-06T08:26:40.584Z,6.30
2018-09-06T08:29:08.265Z,6.50
2018-09-06T08:31:36.250Z,5.90
2018-09-06T08:34:04.400Z,5.70
2018-09-06T08:36:32.385Z,6.07
2018-09-06T08:38:59.998Z,6.20
2018-09-06T08:41:27.714Z,6.10
2018-09-06T08:43:55.363Z,5.90
2018-09-06T08:46:23.226Z,6.87
2018-09-06T08:48:51.986Z,6.57
2018-09-06T08:51:20.054Z,6.00
2018-09-06T08:53:47.993Z,5.50
2018-09-06T08:56:15.623Z,5.90
2018-09-06T08:58:43.595Z,5.70
2018-09-06T09:01:16.716Z,5.40
2018-09-06T09:03:44.743Z,6.43
2018-09-06T09:06:12.375Z,5.97
2018-09-06T09:08:40.406Z,6.17
2018-09-06T09:11:08.080Z,6.33
2018-09-06T09:13:36.115Z,6.43
2018-09-06T09:16:03.835Z,6.50
2018-09-06T09:18:31.512Z,6.40
2018-09-06T09:20:59.224Z,6.83
2018-09-06T09:23:26.982Z,6.90
2018-09-06T09:25:55.003Z,6.53
2018-09-06T09:28:23.513Z,6.57
2018-09-06T09:30:51.442Z,6.90
2018-09-06T09:33:19.091Z,5.93
2018-09-06T09:35:46.744Z,7.10
2018-09-06T09:38:14.434Z,6.33
2018-09-06T09:40:42.062Z,6.60
2018-09-06T09:45:33.154Z,6.63
2018-09-06T09:48:01.210Z,6.40
2018-09-06T09:52:56.057Z,6.57
2018-09-06T09:55:23.725Z,6.60
2018-09-06T09:57:51.322Z,6.90
2018-09-06T10:00:23.855Z,7.33
2018-09-06T10:02:56.969Z,7.70
2018-09-06T10:05:30.526Z,6.67
2018-09-06T10:07:58.728Z,7.23
2018-09-06T10:10:26.739Z,7.47
2018-09-06T10:12:54.348Z,7.23
2018-09-06T10:15:22.370Z,6.93
2018-09-06T10:17:50.313Z,7.17
2018-09-06T10:20:18.465Z,9.13
2018-09-06T10:22:46.253Z,8.50
2018-09-06T10:25:14.274Z,8.47
2018-09-06T10:27:42.421Z,8.93
2018-09-06T10:30:10.467Z,8.37
2018-09-06T10:32:38.961Z,8.90
2018-09-06T10:35:07.042Z,9.07
2018-09-06T10:37:34.956Z,9.17
2018-09-06T10:40:02.648Z,8.13
2018-09-06T10:42:30.292Z,9.60
2018-09-06T10:44:57.904Z,8.90
2018-09-06T10:47:25.562Z,9.00
2018-09-06T10:49:53.457Z,8.87
2018-09-06T10:52:21.370Z,8.23
2018-09-06T10:54:49.249Z,8.50
2018-09-06T10:57:17.371Z,8.77
2018-09-06T10:59:45.369Z,9.10
2018-09-06T11:02:19.758Z,8.20
2018-09-06T11:04:48.674Z,8.93
2018-09-06T11:07:16.316Z,9.27
2018-09-06T11:09:44.280Z,9.87
2018-09-06T11:12:11.998Z,10.07
2018-09-06T11:14:39.998Z,9.97
2018-09-06T11:17:07.692Z,10.27
2018-09-06T11:19:36.148Z,10.70
2018-09-06T11:22:04.048Z,9.27
2018-09-06T11:24:31.710Z,9.93
2018-09-06T11:26:59.368Z,9.60
2018-09-06T11:29:27.269Z,9.30
2018-09-06T11:31:55.176Z,9.57
2018-09-06T11:34:22.997Z,9.50
2018-09-06T11:36:50.857Z,9.27
2018-09-06T11:39:18.842Z,11.37
2018-09-06T11:41:46.556Z,10.07
2018-09-06T11:44:14.228Z,11.60
2018-09-06T11:46:42.248Z,10.73
2018-09-06T11:49:10.118Z,11.13
2018-09-06T11:51:38.073Z,12.37
2018-09-06T11:54:05.753Z,10.80
2018-09-06T11:56:33.957Z,10.63
2018-09-06T11:59:01.671Z,11.07
2018-09-06T12:01:29.381Z,9.40
2018-09-06T12:03:57.172Z,10.67
2018-09-06T12:06:24.823Z,10.00
2018-09-06T12:08:52.731Z,10.17
2018-09-06T12:11:20.482Z,9.90
2018-09-06T12:13:48.172Z,10.00
2018-09-06T12:16:15.784Z,9.70
2018-09-06T12:18:43.414Z,10.70
2018-09-06T12:21:11.270Z,10.20
2018-09-06T12:23:39.387Z,9.60
2018-09-06T12:26:07.065Z,9.07
2018-09-06T12:28:34.698Z,10.00
2018-09-06T12:31:02.689Z,9.87
2018-09-06T12:33:30.772Z,9.73
2018-09-06T12:35:58.486Z,9.73
2018-09-06T12:38:26.312Z,9.50
2018-09-06T12:40:54.361Z,11.20
2018-09-06T12:43:22.567Z,10.17
2018-09-06T12:45:50.818Z,9.67
2018-09-06T12:48:18.451Z,10.73
2018-09-06T12:50:46.346Z,9.17
2018-09-06T12:53:14.309Z,9.00
2018-09-06T12:55:41.949Z,9.90
2018-09-06T12:58:09.951Z,9.80
2018-09-06T13:00:37.589Z,9.90
2018-09-06T13:03:05.775Z,9.50
2018-09-06T13:05:33.697Z,9.60
2018-09-06T13:08:01.369Z,9.80
2018-09-06T13:10:29.070Z,10.60
2018-09-06T13:12:56.681Z,9.60
2018-09-06T13:15:25.069Z,10.60
2018-09-06T13:17:52.705Z,10.50
2018-09-06T13:20:20.785Z,9.13
2018-09-06T13:22:48.899Z,9.30
2018-09-06T13:25:16.548Z,10.07
2018-09-06T13:27:44.423Z,10.00
2018-09-06T13:30:12.316Z,9.10
2018-09-06T13:32:40.092Z,8.77
2018-09-06T13:35:08.027Z,9.40
2018-09-06T13:37:36.199Z,9.27
2018-09-06T13:40:03.915Z,9.83
2018-09-06T13:42:31.835Z,10.63
2018-09-06T13:44:59.545Z,10.17
2018-09-06T13:47:27.410Z,9.53
2018-09-06T13:49:55.134Z,9.40
2018-09-06T13:52:23.118Z,8.87
2018-09-06T13:54:50.702Z,9.10
2018-09-06T13:57:18.616Z,9.60
2018-09-06T13:59:46.296Z,9.27
2018-09-06T14:02:14.264Z,10.50
2018-09-06T14:04:41.905Z,9.80
2018-09-06T14:07:10.163Z,8.33
2018-09-06T14:09:38.179Z,9.93
2018-09-06T14:12:06.452Z,8.60
2018-09-06T14:14:34.111Z,10.53
2018-09-06T14:17:02.103Z,10.20
2018-09-06T14:19:30.016Z,8.80
2018-09-06T14:21:57.680Z,9.53
2018-09-06T14:24:25.734Z,9.30
2018-09-06T14:26:53.585Z,9.00
2018-09-06T14:29:21.272Z,8.87
2018-09-06T14:31:49.155Z,9.73
2018-09-06T14:34:16.818Z,9.67
2018-09-06T14:36:44.653Z,8.70
2018-09-06T14:39:12.562Z,9.70
2018-09-06T14:41:40.564Z,9.20
2018-09-06T14:44:08.228Z,7.87
2018-09-06T14:46:36.180Z,10.27
2018-09-06T14:49:03.816Z,8.10
2018-09-06T14:51:31.440Z,9.33
2018-09-06T14:53:59.686Z,9.50
2018-09-06T14:56:27.370Z,9.80
2018-09-06T14:58:55.470Z,9.17
2018-09-06T15:01:23.471Z,10.67
2018-09-06T15:03:51.308Z,8.57
2018-09-06T15:06:19.053Z,9.03
2018-09-06T15:08:47.178Z,9.20
2018-09-06T15:11:14.845Z,9.17
2018-09-06T15:13:42.563Z,9.10
2018-09-06T15:16:10.493Z,9.10
2018-09-06T15:18:38.159Z,8.97
2018-09-06T15:21:06.169Z,9.23
2018-09-06T15:23:33.974Z,9.23
2018-09-06T15:26:01.806Z,9.57
2018-09-06T15:28:29.691Z,9.97
2018-09-06T15:30:57.405Z,8.90
2018-09-06T15:33:25.239Z,8.27
2018-09-06T15:35:53.262Z,9.23
2018-09-06T15:38:21.254Z,9.80
2018-09-06T15:40:49.554Z,9.17
2018-09-06T15:43:17.212Z,9.27
2018-09-06T15:45:45.266Z,9.70
2018-09-06T15:48:12.997Z,8.70
2018-09-06T15:50:40.629Z,8.50
2018-09-06T15:53:08.597Z,9.40
2018-09-06T15:55:36.533Z,9.20
2018-09-06T15:58:04.459Z,8.53
2018-09-06T16:00:32.420Z,8.23
2018-09-06T16:03:00.073Z,8.90
2018-09-06T16:05:28.107Z,8.93
2018-09-06T16:07:55.873Z,9.67
2018-09-06T16:10:23.496Z,9.10
2018-09-06T16:12:51.380Z,8.90
2018-09-06T16:15:19.631Z,8.90
2018-09-06T16:17:47.889Z,8.77
2018-09-06T16:20:15.778Z,8.20
2018-09-06T16:22:44.919Z,9.60
2018-09-06T16:25:12.931Z,7.80
2018-09-06T16:27:40.998Z,8.50
2018-09-06T16:30:08.713Z,8.93
2018-09-06T16:32:36.885Z,8.20
2018-09-06T16:35:04.838Z,8.30
2018-09-06T16:37:32.581Z,8.60
2018-09-06T16:40:00.409Z,8.40
2018-09-06T16:42:28.924Z,8.90
2018-09-06T16:44:57.185Z,8.10
2018-09-06T16:47:25.587Z,8.10
2018-09-06T16:49:53.348Z,7.03
2018-09-06T16:52:21.345Z,7.30
2018-09-06T16:54:49.426Z,7.50
2018-09-06T16:57:17.113Z,7.60
2018-09-06T16:59:44.834Z,6.63
2018-09-06T17:02:13.756Z,7.03
2018-09-06T17:04:41.802Z,7.60
2018-09-06T17:07:10.101Z,7.90
2018-09-06T17:09:37.928Z,6.97
2018-09-06T17:12:05.957Z,7.20
2018-09-06T17:14:34.381Z,6.67
2018-09-06T17:17:02.029Z,7.80
2018-09-06T17:19:29.708Z,8.57
2018-09-06T17:21:57.396Z,7.63
2018-09-06T17:24:25.069Z,8.43
2018-09-06T17:26:54.058Z,7.77
2018-09-06T17:29:22.333Z,7.43
2018-09-06T17:31:50.209Z,7.97
2018-09-06T17:34:17.949Z,7.93
2018-09-06T17:36:45.575Z,8.30
2018-09-06T17:39:14.040Z,8.40
2018-09-06T17:41:41.764Z,8.23
2018-09-06T17:44:09.980Z,8.57
2018-09-06T17:46:37.775Z,9.77
2018-09-06T17:49:05.476Z,9.60
2018-09-06T17:51:33.635Z,10.37
2018-09-06T17:54:01.300Z,9.33
2018-09-06T17:56:29.352Z,10.43
2018-09-06T17:58:57.292Z,8.77
2018-09-06T18:01:38.954Z,8.53
2018-09-06T18:04:07.158Z,8.50
2018-09-06T18:06:34.885Z,8.33
2018-09-06T18:09:05.940Z,7.33
2018-09-06T18:11:33.616Z,7.10
2018-09-06T18:14:01.633Z,8.70
2018-09-06T18:16:29.298Z,7.97
2018-09-06T18:18:56.975Z,7.97
2018-09-06T18:21:25.362Z,7.30
2018-09-06T18:23:53.680Z,7.27
2018-09-06T18:26:22.189Z,7.17
2018-09-06T18:28:49.872Z,7.37
2018-09-06T18:31:17.551Z,7.90
2018-09-06T18:33:45.500Z,7.70
2018-09-06T18:36:13.292Z,8.20
2018-09-06T18:38:41.455Z,8.17
2018-09-06T18:41:09.251Z,7.00
2018-09-06T18:43:37.385Z,8.97
2018-09-06T18:46:05.251Z,7.20
2018-09-06T18:48:32.910Z,6.97
2018-09-06T18:51:00.603Z,7.90
2018-09-06T18:53:28.304Z,8.27
2018-09-06T18:55:55.941Z,7.50
2018-09-06T18:58:23.904Z,8.50
2018-09-06T19:00:51.538Z,7.23
2018-09-06T19:03:19.434Z,7.47
2018-09-06T19:05:47.742Z,6.77
2018-09-06T19:08:16.228Z,7.70
2018-09-06T19:10:44.166Z,7.13
2018-09-06T19:13:11.807Z,7.27
2018-09-06T19:15:39.561Z,8.17
2018-09-06T19:18:07.757Z,7.83
2018-09-06T19:20:35.719Z,7.40
2018-09-06T19:23:03.712Z,6.67
2018-09-06T19:25:31.684Z,7.67
2018-09-06T19:27:59.673Z,7.40
2018-09-06T19:30:27.485Z,7.10
2018-09-06T19:32:55.534Z,8.07
2018-09-06T19:35:23.564Z,7.67
2018-09-06T19:37:51.532Z,7.20
2018-09-06T19:40:19.482Z,6.60
2018-09-06T19:42:47.414Z,7.03
2018-09-06T19:45:15.643Z,6.87
2018-09-06T19:47:43.607Z,7.43
2018-09-06T19:50:11.867Z,7.50
2018-09-06T19:52:39.549Z,7.60
2018-09-06T19:55:07.297Z,7.60
2018-09-06T19:57:35.802Z,7.73
2018-09-06T20:00:04.092Z,7.43
2018-09-06T20:02:32.128Z,9.17
2018-09-06T20:04:59.887Z,7.33
2018-09-06T20:07:27.816Z,7.27
2018-09-06T20:09:55.487Z,6.57
2018-09-06T20:12:24.866Z,6.97
2018-09-06T20:14:52.515Z,6.73
2018-09-06T20:17:20.410Z,6.93
2018-09-06T20:19:48.535Z,6.90
2018-09-06T20:22:16.609Z,7.07
2018-09-06T20:24:44.441Z,7.40
2018-09-06T20:27:12.892Z,6.90
2018-09-06T20:29:40.606Z,8.33
2018-09-06T20:32:08.340Z,7.13
2018-09-06T20:34:36.556Z,7.53
2018-09-06T20:37:04.250Z,7.40
2018-09-06T20:39:32.098Z,6.67
2018-09-06T20:41:59.889Z,6.90
2018-09-06T20:44:27.505Z,6.73
2018-09-06T20:46:55.877Z,6.50
2018-09-06T20:49:23.715Z,6.60
2018-09-06T20:51:51.765Z,6.90
2018-09-06T20:54:19.724Z,7.37
2018-09-06T20:56:48.338Z,6.90
2018-09-06T20:59:16.433Z,6.93
2018-09-06T21:01:45.280Z,7.50
2018-09-06T21:04:13.380Z,7.00
2018-09-06T21:06:41.058Z,7.23
2018-09-06T21:09:09.521Z,6.10
2018-09-06T21:11:37.898Z,6.27
2018-09-06T21:14:05.988Z,6.33
2018-09-06T21:16:33.784Z,6.13
2018-09-06T21:19:02.376Z,6.80
2018-09-06T21:21:30.832Z,5.80
2018-09-06T21:23:58.694Z,6.90
2018-09-06T21:26:27.004Z,6.23
2018-09-06T21:28:54.752Z,7.10
2018-09-06T21:31:22.616Z,7.27
2018-09-06T21:33:50.488Z,6.80
2018-09-06T21:36:18.629Z,7.07
2018-09-06T21:38:47.056Z,7.87
2018-09-06T21:41:14.689Z,6.83
2018-09-06T21:43:42.455Z,5.90
2018-09-06T21:46:10.434Z,7.53
2018-09-06T21:48:38.100Z,6.80
2018-09-06T21:51:05.981Z,6.50
2018-09-06T21:53:33.897Z,6.73
2018-09-06T21:56:01.601Z,7.23
2018-09-06T21:58:29.638Z,7.00
2018-09-06T22:00:57.256Z,7.03
2018-09-06T22:03:30.370Z,7.40
2018-09-06T22:05:58.224Z,7.17
2018-09-06T22:08:25.876Z,6.90
2018-09-06T22:10:53.566Z,7.33
2018-09-06T22:13:21.254Z,6.97
2018-09-06T22:15:48.876Z,7.93
2018-09-06T22:18:16.501Z,6.67
2018-09-06T22:20:44.169Z,7.30
2018-09-06T22:23:11.804Z,7.43
2018-09-06T22:25:40.154Z,6.97
2018-09-06T22:28:08.073Z,7.63
2018-09-06T22:30:35.790Z,6.60
2018-09-06T22:33:04.151Z,7.30
2018-09-06T22:35:32.143Z,7.47
2018-09-06T22:37:59.816Z,7.23
2018-09-06T22:40:27.449Z,7.10
2018-09-06T22:42:55.073Z,7.70
2018-09-06T22:45:23.013Z,7.13
2018-09-06T22:47:50.644Z,7.73
2018-09-06T22:50:18.520Z,8.20
2018-09-06T22:52:46.118Z,7.30
2018-09-06T22:55:14.088Z,7.17
2018-09-06T22:57:42.048Z,8.10
2018-09-06T23:00:09.646Z,7.50
2018-09-06T23:02:42.808Z,9.40
2018-09-06T23:05:10.781Z,8.80
2018-09-06T23:07:39.160Z,8.47
2018-09-06T23:10:07.344Z,7.60
2018-09-06T23:12:35.039Z,8.30
2018-09-06T23:15:02.675Z,8.47
2018-09-06T23:17:30.584Z,8.60
2018-09-06T23:19:58.837Z,8.87
2018-09-06T23:22:26.693Z,8.70
2018-09-06T23:24:54.450Z,9.13
2018-09-06T23:27:25.101Z,10.17
2018-09-06T23:29:53.276Z,10.27
2018-09-06T23:32:21.480Z,10.10
2018-09-06T23:34:49.622Z,10.30
2018-09-06T23:37:17.281Z,10.37
2018-09-06T23:39:44.994Z,10.37
2018-09-06T23:42:12.622Z,9.93
2018-09-06T23:44:40.289Z,10.67
2018-09-06T23:47:08.194Z,10.20
2018-09-06T23:49:36.125Z,11.43
2018-09-06T23:52:03.829Z,10.83
2018-09-06T23:54:31.490Z,10.77
2018-09-06T23:56:59.182Z,11.13
2018-09-06T23:59:26.813Z,11.33
